Time;durP1;ratioP1;P1;durP2;ratioP2;P2;SDS_P1;SDS_P2;PMS_P1;PMS_P2;Temp;Humidity;BMP_temperature;BMP_pressure;BME280_temperature;BME280_humidity;BME280_pressure;Samples;Min_cycle;Max_cycle;Signal;HPM_P1;HPM_P2
2023/06/19 00:01:24;;;;;;;11.27;8.35;;;22.60;97.30;;;;;;7375459;19;20507;-83
2023/06/19 00:03:51;;;;;;;10.55;8.32;;;22.60;97.00;;;;;;7374669;19;20090;-83
2023/06/19 00:06:17;;;;;;;9.27;7.60;;;22.60;96.90;;;;;;7372823;19;20039;-83
2023/06/19 00:08:44;;;;;;;10.02;8.80;;;22.50;96.90;;;;;;7372036;19;20022;-83
2023/06/19 00:11:10;;;;;;;9.82;8.00;;;22.60;96.70;;;;;;7372263;19;20018;-84
2023/06/19 00:13:37;;;;;;;11.48;8.35;;;22.50;96.50;;;;;;7372804;19;20052;-83
2023/06/19 00:16:03;;;;;;;10.30;8.00;;;22.50;96.50;;;;;;7370261;19;20006;-83
2023/06/19 00:18:29;;;;;;;11.35;8.93;;;22.50;96.50;;;;;;7376553;19;20011;-84
2023/06/19 00:20:56;;;;;;;10.38;8.40;;;22.50;96.60;;;;;;7366788;19;20493;-84
2023/06/19 00:23:23;;;;;;;10.48;9.35;;;22.50;96.60;;;;;;7375101;19;20050;-84
2023/06/19 00:25:49;;;;;;;10.90;8.52;;;22.50;96.40;;;;;;7372831;19;20041;-84
2023/06/19 00:28:19;;;;;;;8.98;7.93;;;22.50;96.30;;;;;;7371853;19;20841;-84
2023/06/19 00:30:46;;;;;;;9.05;7.93;;;22.50;96.00;;;;;;7377709;19;20018;-84
2023/06/19 00:33:14;;;;;;;9.57;8.52;;;22.50;96.00;;;;;;7374706;19;20015;-84
2023/06/19 00:35:41;;;;;;;9.60;8.43;;;22.50;96.00;;;;;;7377371;19;20014;-84
2023/06/19 00:38:07;;;;;;;10.05;8.77;;;22.40;96.00;;;;;;7375053;19;20044;-84
2023/06/19 00:40:34;;;;;;;9.63;8.20;;;22.50;95.80;;;;;;7376550;19;20038;-85
2023/06/19 00:43:00;;;;;;;9.75;8.75;;;22.50;95.60;;;;;;7376401;19;20073;-84
2023/06/19 00:45:28;;;;;;;9.35;8.45;;;22.50;95.40;;;;;;7377072;19;20026;-84
2023/06/19 00:47:58;;;;;;;9.43;8.52;;;22.50;95.30;;;;;;7377469;19;20082;-84
2023/06/19 00:50:24;;;;;;;8.48;7.32;;;22.50;95.30;;;;;;7373322;19;20021;-85
2023/06/19 00:52:51;;;;;;;9.35;6.88;;;22.50;94.80;;;;;;7375713;19;20063;-84
2023/06/19 00:55:17;;;;;;;10.45;7.65;;;22.50;95.10;;;;;;7373996;19;20109;-84
2023/06/19 00:57:45;;;;;;;12.25;8.18;;;22.50;94.70;;;;;;7376022;19;20037;-84
2023/06/19 01:00:14;;;;;;;9.32;8.35;;;22.50;94.60;;;;;;7375132;19;20026;-84
2023/06/19 01:02:44;;;;;;;9.20;8.30;;;22.50;94.50;;;;;;7373119;19;20014;-84
2023/06/19 01:05:11;;;;;;;8.20;7.40;;;22.50;94.40;;;;;;7371971;19;20025;-84
2023/06/19 01:07:50;;;;;;;8.40;7.60;;;22.50;94.40;;;;;;7370949;19;20022;-84
2023/06/19 01:10:21;;;;;;;8.15;7.38;;;22.50;94.20;;;;;;7373787;19;20018;-84
2023/06/19 01:13:02;;;;;;;9.52;8.10;;;22.50;93.90;;;;;;7371444;19;20029;-84
2023/06/19 01:15:29;;;;;;;11.23;8.43;;;22.50;93.60;;;;;;7371670;19;20049;-84
2023/06/19 01:17:58;;;;;;;8.60;7.60;;;22.60;93.50;;;;;;7370345;19;20023;-84
2023/06/19 01:20:25;;;;;;;9.73;8.35;;;22.60;93.60;;;;;;7371348;19;20022;-84
2023/06/19 01:22:51;;;;;;;8.57;7.78;;;22.60;93.30;;;;;;7367140;19;20117;-84
2023/06/19 01:25:18;;;;;;;8.35;7.47;;;22.60;93.30;;;;;;7368337;19;20022;-84
2023/06/19 01:27:44;;;;;;;11.63;7.55;;;22.70;93.30;;;;;;7371529;19;20106;-84
2023/06/19 01:30:12;;;;;;;7.55;6.85;;;22.70;93.10;;;;;;7374591;19;20019;-84
2023/06/19 01:32:56;;;;;;;10.02;8.25;;;22.70;93.10;;;;;;7367774;19;20018;-83
2023/06/19 01:35:28;;;;;;;10.23;9.00;;;22.70;93.20;;;;;;7367782;19;20018;-83
2023/06/19 01:37:55;;;;;;;9.32;7.88;;;22.60;93.40;;;;;;7370175;19;20022;-83
2023/06/19 01:40:25;;;;;;;9.25;8.30;;;22.60;93.60;;;;;;7371410;19;20022;-83
2023/06/19 01:42:55;;;;;;;9.47;8.03;;;22.60;93.50;;;;;;7372985;19;20126;-84
2023/06/19 01:45:22;;;;;;;9.23;7.90;;;22.60;93.80;;;;;;7368267;19;20018;-85
2023/06/19 01:47:49;;;;;;;9.50;8.50;;;22.60;93.60;;;;;;7371318;19;20018;-83
2023/06/19 01:50:17;;;;;;;8.98;7.10;;;22.60;93.90;;;;;;7370936;19;20653;-83
2023/06/19 01:52:46;;;;;;;8.38;7.57;;;22.50;94.10;;;;;;7373683;19;20027;-83
2023/06/19 01:55:12;;;;;;;9.25;7.90;;;22.50;94.40;;;;;;7372167;19;20018;-84
2023/06/19 01:57:39;;;;;;;11.45;7.95;;;22.50;94.60;;;;;;7371676;19;20022;-84
2023/06/19 02:00:07;;;;;;;8.80;7.95;;;22.40;94.70;;;;;;7372318;19;20022;-83
2023/06/19 02:02:46;;;;;;;10.90;8.50;;;22.40;95.00;;;;;;7376739;19;20511;-83
2023/06/19 02:05:13;;;;;;;8.48;7.10;;;22.30;95.10;;;;;;7372396;19;20531;-83
2023/06/19 02:07:40;;;;;;;10.55;8.48;;;22.20;95.40;;;;;;7373503;19;20057;-83
2023/06/19 02:10:07;;;;;;;9.07;7.95;;;22.20;95.60;;;;;;7372346;19;20821;-83
2023/06/19 02:12:34;;;;;;;9.70;8.70;;;22.20;95.90;;;;;;7374357;19;20045;-83
2023/06/19 02:15:00;;;;;;;8.63;7.82;;;22.10;96.20;;;;;;7371368;19;20447;-82
2023/06/19 02:17:26;;;;;;;9.07;7.93;;;22.10;96.50;;;;;;7369873;19;20011;-83
2023/06/19 02:19:53;;;;;;;9.25;8.35;;;22.00;97.00;;;;;;7371470;19;20019;-82
2023/06/19 02:22:19;;;;;;;9.60;8.20;;;22.00;97.20;;;;;;7373429;19;20022;-82
2023/06/19 02:24:46;;;;;;;9.18;8.27;;;21.90;97.40;;;;;;7368076;19;20025;-82
2023/06/19 02:27:13;;;;;;;9.43;7.95;;;21.90;97.90;;;;;;7366164;19;20090;-82
2023/06/19 02:29:39;;;;;;;8.82;7.90;;;21.80;98.20;;;;;;7373556;19;20014;-83
2023/06/19 02:32:05;;;;;;;8.55;7.72;;;21.80;98.80;;;;;;7371448;19;20473;-83
2023/06/19 02:34:33;;;;;;;10.32;8.85;;;21.70;99.30;;;;;;7367705;19;20050;-83
2023/06/19 02:37:00;;;;;;;10.48;9.40;;;21.70;99.70;;;;;;7367466;19;20007;-84
2023/06/19 02:39:27;;;;;;;8.98;8.07;;;21.70;99.80;;;;;;7365805;19;20030;-83
2023/06/19 02:41:53;;;;;;;13.00;7.72;;;21.70;99.90;;;;;;7370193;19;20023;-83
2023/06/19 02:44:20;;;;;;;9.75;8.75;;;21.60;99.90;;;;;;7369200;19;20025;-83
2023/06/19 02:46:52;;;;;;;8.85;7.95;;;21.50;99.90;;;;;;7368731;19;20018;-84
2023/06/19 02:49:19;;;;;;;10.05;8.98;;;21.50;99.90;;;;;;7375504;19;20014;-84
2023/06/19 02:51:46;;;;;;;10.13;8.60;;;21.50;99.90;;;;;;7378266;19;20373;-84
2023/06/19 02:54:12;;;;;;;8.93;7.90;;;21.50;99.90;;;;;;7376627;19;20018;-84
2023/06/19 02:56:38;;;;;;;9.65;8.73;;;21.50;99.90;;;;;;7375385;19;20757;-82
2023/06/19 02:59:05;;;;;;;9.23;8.23;;;21.50;99.90;;;;;;7376155;19;20038;-83
2023/06/19 03:01:31;;;;;;;8.55;7.70;;;21.50;99.90;;;;;;7378292;19;20015;-82
2023/06/19 03:03:57;;;;;;;9.85;8.85;;;21.50;99.90;;;;;;7376599;19;20030;-82
2023/06/19 03:06:23;;;;;;;9.88;8.13;;;21.50;99.90;;;;;;7375216;19;20146;-83
2023/06/19 03:08:50;;;;;;;9.38;8.07;;;21.40;99.90;;;;;;7374660;19;20017;-83
2023/06/19 03:11:17;;;;;;;13.15;9.32;;;21.40;99.90;;;;;;7377312;19;20023;-83
2023/06/19 03:13:53;;;;;;;9.95;8.95;;;21.40;99.90;;;;;;7377512;19;20419;-82
2023/06/19 03:16:20;;;;;;;9.50;8.50;;;21.40;99.90;;;;;;7376563;19;20029;-83
2023/06/19 03:18:48;;;;;;;9.95;8.18;;;21.40;99.90;;;;;;7377047;19;20082;-83
2023/06/19 03:21:19;;;;;;;11.18;8.35;;;21.40;99.90;;;;;;7377888;19;20018;-83
2023/06/19 03:23:46;;;;;;;10.10;8.30;;;21.40;99.90;;;;;;7376106;19;20030;-83
2023/06/19 03:26:12;;;;;;;8.98;8.10;;;21.40;99.90;;;;;;7373673;19;20073;-83
2023/06/19 03:28:43;;;;;;;8.82;7.97;;;21.50;99.90;;;;;;7374214;19;21228;-83
2023/06/19 03:31:10;;;;;;;9.02;7.80;;;21.50;99.90;;;;;;7377187;19;20838;-83
2023/06/19 03:33:37;;;;;;;11.98;7.80;;;21.50;99.90;;;;;;7377385;19;20465;-83
2023/06/19 03:36:04;;;;;;;8.70;7.32;;;21.50;99.90;;;;;;7374003;19;20023;-83
2023/06/19 03:38:50;;;;;;;9.30;7.30;;;21.50;99.90;;;;;;7375339;19;20025;-83
2023/06/19 03:41:19;;;;;;;7.63;6.47;;;21.50;99.90;;;;;;7375534;19;20019;-84
2023/06/19 03:43:46;;;;;;;7.65;6.50;;;21.50;99.90;;;;;;7378082;19;20019;-84
2023/06/19 03:46:13;;;;;;;7.50;6.80;;;21.50;99.90;;;;;;7373335;19;20018;-83
2023/06/19 03:48:39;;;;;;;8.73;6.78;;;21.50;99.90;;;;;;7375495;19;20114;-83
2023/06/19 03:51:06;;;;;;;8.07;6.40;;;21.40;99.90;;;;;;7374141;19;20019;-84
2023/06/19 03:53:32;;;;;;;8.93;6.20;;;21.40;99.90;;;;;;7374583;19;20041;-84
2023/06/19 03:55:59;;;;;;;7.38;5.32;;;21.40;99.90;;;;;;7372092;19;20026;-84
2023/06/19 03:58:25;;;;;;;8.10;5.35;;;21.30;99.90;;;;;;7375687;19;20010;-83
2023/06/19 04:00:52;;;;;;;6.10;5.40;;;21.20;99.90;;;;;;7374964;19;20022;-83
2023/06/19 04:03:18;;;;;;;7.60;5.25;;;21.20;99.90;;;;;;7373857;19;21212;-83
2023/06/19 04:05:47;;;;;;;6.07;4.65;;;21.10;99.90;;;;;;7375353;19;20026;-84
2023/06/19 04:08:13;;;;;;;7.22;5.22;;;21.10;99.90;;;;;;7377081;19;20047;-84
2023/06/19 04:10:43;;;;;;;7.78;4.72;;;21.10;99.90;;;;;;7375757;19;20015;-83
2023/06/19 04:13:10;;;;;;;7.38;5.32;;;21.00;99.90;;;;;;7374299;19;20039;-82
2023/06/19 04:15:37;;;;;;;8.40;5.68;;;21.00;99.90;;;;;;7372040;19;20026;-83
2023/06/19 04:18:03;;;;;;;6.85;5.30;;;20.90;99.90;;;;;;7376050;19;20014;-82
2023/06/19 04:20:30;;;;;;;7.85;5.97;;;20.80;99.90;;;;;;7373138;19;20022;-83
2023/06/19 04:22:56;;;;;;;6.80;5.03;;;20.80;99.90;;;;;;7375776;19;20094;-82
2023/06/19 04:25:23;;;;;;;6.85;4.90;;;20.80;99.90;;;;;;7371406;19;20410;-83
2023/06/19 04:27:50;;;;;;;5.80;4.70;;;20.80;99.90;;;;;;7377545;19;20045;-83
2023/06/19 04:30:16;;;;;;;6.50;4.70;;;20.80;99.90;;;;;;7377147;19;20029;-83
2023/06/19 04:32:42;;;;;;;6.22;4.43;;;20.80;99.90;;;;;;7375630;19;20018;-82
2023/06/19 04:35:09;;;;;;;5.75;4.22;;;20.70;99.90;;;;;;7374829;19;20507;-83
2023/06/19 04:37:36;;;;;;;7.20;4.28;;;20.70;99.90;;;;;;7376737;19;20102;-81
2023/06/19 04:40:07;;;;;;;7.43;4.20;;;20.70;99.90;;;;;;7372929;19;20090;-84
2023/06/19 04:42:33;;;;;;;7.20;4.03;;;20.70;99.90;;;;;;7374237;19;20030;-85
2023/06/19 04:45:00;;;;;;;7.13;4.68;;;20.70;99.90;;;;;;7374810;19;20025;-85
2023/06/19 04:47:26;;;;;;;6.05;4.18;;;20.70;99.90;;;;;;7375508;19;20052;-84
2023/06/19 04:49:52;;;;;;;6.13;4.35;;;20.60;99.90;;;;;;7374114;19;20069;-84
2023/06/19 04:52:19;;;;;;;6.30;4.13;;;20.70;99.90;;;;;;7373201;19;20014;-85
2023/06/19 04:54:48;;;;;;;7.57;4.10;;;20.70;99.90;;;;;;7372429;19;20020;-84
2023/06/19 04:57:15;;;;;;;5.75;4.07;;;20.70;99.90;;;;;;7371599;19;20026;-83
2023/06/19 04:59:47;;;;;;;4.97;3.78;;;20.70;99.90;;;;;;7373140;19;20082;-84
2023/06/19 05:02:14;;;;;;;6.53;4.05;;;20.70;99.90;;;;;;7372624;19;20023;-83
2023/06/19 05:04:42;;;;;;;6.57;4.57;;;20.80;99.90;;;;;;7372596;19;20022;-83
2023/06/19 05:07:10;;;;;;;5.53;4.50;;;20.70;99.90;;;;;;7374924;19;20014;-83
2023/06/19 05:09:37;;;;;;;5.20;4.07;;;20.70;99.90;;;;;;7372322;19;20692;-83
2023/06/19 05:12:03;;;;;;;5.18;4.30;;;20.80;99.90;;;;;;7376585;19;20086;-83
2023/06/19 05:14:29;;;;;;;5.82;4.20;;;20.90;99.90;;;;;;7370862;19;20090;-83
2023/06/19 05:16:56;;;;;;;6.32;4.95;;;21.00;99.90;;;;;;7372414;19;20017;-83
2023/06/19 05:19:22;;;;;;;6.05;4.78;;;21.20;99.90;;;;;;7372260;19;20071;-83
2023/06/19 05:21:48;;;;;;;7.47;4.35;;;21.30;99.90;;;;;;7375632;19;20317;-83
2023/06/19 05:24:14;;;;;;;6.50;4.80;;;21.40;99.90;;;;;;7374230;19;20024;-83
2023/06/19 05:26:41;;;;;;;6.60;4.10;;;21.50;99.90;;;;;;7374207;19;20074;-84
2023/06/19 05:29:08;;;;;;;5.43;4.57;;;21.60;99.90;;;;;;7373804;19;20026;-83
2023/06/19 05:31:35;;;;;;;8.95;5.25;;;21.70;99.90;;;;;;7370154;19;20102;-83
2023/06/19 05:34:01;;;;;;;6.18;4.57;;;21.70;99.90;;;;;;7375715;19;20010;-84
2023/06/19 05:36:28;;;;;;;7.95;4.63;;;21.60;99.90;;;;;;7372418;19;20042;-84
2023/06/19 05:38:54;;;;;;;6.78;4.70;;;21.40;99.90;;;;;;7375872;19;20014;-83
2023/06/19 05:41:20;;;;;;;5.85;4.85;;;21.30;99.90;;;;;;7371782;19;20019;-83
2023/06/19 05:43:46;;;;;;;8.57;5.85;;;21.30;99.90;;;;;;7370041;19;20513;-84
2023/06/19 05:46:12;;;;;;;5.97;5.13;;;21.20;99.90;;;;;;7374731;19;20009;-83
2023/06/19 05:48:39;;;;;;;8.90;5.90;;;21.20;99.90;;;;;;7375026;19;20993;-84
2023/06/19 05:51:05;;;;;;;6.40;5.03;;;21.20;99.90;;;;;;7376823;19;20793;-85
2023/06/19 05:53:32;;;;;;;6.13;4.80;;;21.20;99.90;;;;;;7374793;19;20019;-84
2023/06/19 05:55:58;;;;;;;7.68;5.32;;;21.30;99.90;;;;;;7368607;19;20815;-87
2023/06/19 05:58:25;;;;;;;7.85;5.30;;;21.40;99.90;;;;;;7375959;19;20042;-86
2023/06/19 06:00:57;;;;;;;6.80;4.72;;;21.40;99.90;;;;;;7377305;19;20370;-85
2023/06/19 06:03:25;;;;;;;6.55;4.30;;;21.50;99.90;;;;;;7378742;19;20023;-85
2023/06/19 06:05:51;;;;;;;4.90;4.30;;;21.30;99.90;;;;;;7379529;19;20011;-85
2023/06/19 06:08:17;;;;;;;6.85;5.25;;;21.40;99.90;;;;;;7379930;19;20006;-85
2023/06/19 06:10:44;;;;;;;6.35;5.03;;;21.40;99.90;;;;;;7376243;19;20042;-85
2023/06/19 06:13:10;;;;;;;6.30;5.28;;;21.60;99.90;;;;;;7379471;19;20014;-86
2023/06/19 06:15:36;;;;;;;5.60;4.97;;;21.50;99.90;;;;;;7371464;19;20089;-85
2023/06/19 06:18:03;;;;;;;7.80;4.85;;;21.50;99.90;;;;;;7376029;19;20018;-87
2023/06/19 06:20:31;;;;;;;7.03;4.93;;;21.60;99.90;;;;;;7373218;19;20035;-83
2023/06/19 06:22:57;;;;;;;6.20;5.43;;;21.70;99.90;;;;;;7377654;19;20018;-85
2023/06/19 06:25:23;;;;;;;6.25;5.22;;;21.60;99.90;;;;;;7383550;19;20033;-85
2023/06/19 06:27:49;;;;;;;8.65;5.63;;;21.60;99.90;;;;;;7385284;19;20025;-85
2023/06/19 06:30:18;;;;;;;7.18;5.22;;;21.40;99.90;;;;;;7383856;19;20066;-85
2023/06/19 06:32:44;;;;;;;8.52;6.05;;;21.30;99.90;;;;;;7383437;19;20025;-85
2023/06/19 06:35:13;;;;;;;8.70;6.57;;;21.30;99.90;;;;;;7381792;19;20025;-84
2023/06/19 06:37:40;;;;;;;7.40;6.70;;;21.30;99.90;;;;;;7384286;19;20015;-83
2023/06/19 06:40:11;;;;;;;8.25;7.28;;;21.20;99.90;;;;;;7381913;19;20021;-84
2023/06/19 06:42:38;;;;;;;11.18;8.27;;;21.20;99.90;;;;;;7383002;19;20018;-85
2023/06/19 06:45:06;;;;;;;10.43;9.43;;;21.10;99.90;;;;;;7378632;19;20037;-84
2023/06/19 06:47:34;;;;;;;11.73;10.60;;;21.10;99.90;;;;;;7374625;19;20026;-84
2023/06/19 06:50:00;;;;;;;12.70;11.30;;;21.00;99.90;;;;;;7380831;19;20018;-87
2023/06/19 06:52:27;;;;;;;13.65;12.13;;;21.00;99.90;;;;;;7382306;19;20018;-84
2023/06/19 06:54:55;;;;;;;14.80;13.27;;;21.00;99.90;;;;;;7384483;19;20017;-84
2023/06/19 06:57:21;;;;;;;15.07;12.65;;;21.00;99.90;;;;;;7378223;19;20027;-83
2023/06/19 06:59:47;;;;;;;14.45;12.32;;;21.00;99.90;;;;;;7381523;19;20021;-83
2023/06/19 07:02:14;;;;;;;11.93;9.98;;;21.00;99.90;;;;;;7381261;19;20021;-84
2023/06/19 07:04:40;;;;;;;12.68;10.27;;;21.00;99.90;;;;;;7382157;19;20041;-83
2023/06/19 07:07:08;;;;;;;10.30;9.20;;;21.00;99.90;;;;;;7380095;19;20053;-83
2023/06/19 07:09:34;;;;;;;10.05;9.05;;;21.00;99.90;;;;;;7377933;19;20014;-83
2023/06/19 07:12:04;;;;;;;11.30;8.52;;;21.00;99.90;;;;;;7381525;19;20466;-83
2023/06/19 07:14:30;;;;;;;14.30;8.82;;;21.00;99.90;;;;;;7382441;19;20090;-83
2023/06/19 07:16:56;;;;;;;12.80;8.57;;;21.00;99.90;;;;;;7378873;19;20082;-83
2023/06/19 07:19:23;;;;;;;13.50;8.45;;;20.90;99.90;;;;;;7378761;19;20023;-84
2023/06/19 07:21:50;;;;;;;10.68;9.48;;;20.90;99.90;;;;;;7380826;19;20019;-81
2023/06/19 07:24:17;;;;;;;12.40;8.25;;;20.80;99.90;;;;;;7377706;19;20022;-81
2023/06/19 07:26:43;;;;;;;10.77;8.65;;;20.70;99.90;;;;;;7382071;19;20048;-80
2023/06/19 07:29:09;;;;;;;10.43;8.98;;;20.70;99.90;;;;;;7379191;19;20029;-80
2023/06/19 07:31:35;;;;;;;8.88;7.97;;;20.60;99.90;;;;;;7378955;19;20488;-81
2023/06/19 07:34:02;;;;;;;8.95;8.05;;;20.60;99.90;;;;;;7373651;19;20723;-82
2023/06/19 07:36:28;;;;;;;13.05;8.75;;;20.60;99.90;;;;;;7372280;19;20022;-82
2023/06/19 07:38:55;;;;;;;10.57;8.73;;;20.50;99.90;;;;;;7378617;19;20822;-80
2023/06/19 07:41:21;;;;;;;10.73;9.70;;;20.50;99.90;;;;;;7371415;19;20026;-83
2023/06/19 07:43:47;;;;;;;9.95;8.98;;;20.50;99.90;;;;;;7371501;19;20018;-82
2023/06/19 07:46:15;;;;;;;10.02;8.88;;;20.50;99.90;;;;;;7377129;19;20021;-80
2023/06/19 07:48:42;;;;;;;10.07;9.10;;;20.60;99.90;;;;;;7377974;19;20056;-81
2023/06/19 07:51:08;;;;;;;11.05;9.95;;;20.60;99.90;;;;;;7378232;19;20015;-82
2023/06/19 07:53:34;;;;;;;9.52;8.63;;;20.60;99.90;;;;;;7376558;19;20474;-84
2023/06/19 07:56:01;;;;;;;9.55;8.18;;;20.60;99.90;;;;;;7374439;19;20044;-81
2023/06/19 07:58:27;;;;;;;9.32;8.27;;;20.50;99.90;;;;;;7375106;19;20014;-82
2023/06/19 08:00:53;;;;;;;8.60;7.75;;;20.50;99.90;;;;;;7375746;19;20021;-81
2023/06/19 08:03:21;;;;;;;8.38;7.57;;;20.50;99.90;;;;;;7374968;19;20015;-81
2023/06/19 08:05:48;;;;;;;10.23;8.48;;;20.50;99.90;;;;;;7379611;19;20078;-82
2023/06/19 08:08:14;;;;;;;9.02;8.00;;;20.70;99.90;;;;;;7378144;19;20022;-82
2023/06/19 08:10:40;;;;;;;9.50;7.93;;;20.80;99.90;;;;;;7376905;19;20036;-82
2023/06/19 08:13:07;;;;;;;9.07;8.18;;;20.90;99.90;;;;;;7374411;19;20018;-80
2023/06/19 08:15:33;;;;;;;9.48;8.57;;;20.90;99.90;;;;;;7375090;19;20019;-83
2023/06/19 08:18:00;;;;;;;11.45;9.90;;;20.90;99.90;;;;;;7374135;19;20010;-82
2023/06/19 08:20:26;;;;;;;10.40;9.50;;;20.90;99.90;;;;;;7375297;19;20398;-81
2023/06/19 08:22:52;;;;;;;10.52;9.52;;;21.00;99.90;;;;;;7377256;19;20791;-82
2023/06/19 08:25:19;;;;;;;11.88;10.88;;;21.00;99.90;;;;;;7372908;19;20656;-85
2023/06/19 08:27:46;;;;;;;12.20;11.20;;;21.00;99.90;;;;;;7363638;19;20022;-81
2023/06/19 08:30:13;;;;;;;11.30;10.40;;;21.00;99.90;;;;;;7370184;19;20081;-82
2023/06/19 08:32:39;;;;;;;11.00;10.00;;;21.20;99.90;;;;;;7374296;19;20022;-82
2023/06/19 08:35:06;;;;;;;12.52;11.43;;;21.30;99.90;;;;;;7374323;19;20624;-82
2023/06/19 08:37:32;;;;;;;13.52;12.27;;;21.40;99.90;;;;;;7370251;19;20074;-81
2023/06/19 08:39:59;;;;;;;12.80;11.68;;;21.60;99.90;;;;;;7373964;19;20066;-81
2023/06/19 08:42:25;;;;;;;12.40;11.40;;;21.70;99.90;;;;;;7374777;19;20022;-82
2023/06/19 08:44:52;;;;;;;13.40;12.23;;;21.90;99.90;;;;;;7375408;19;20483;-82
2023/06/19 08:47:18;;;;;;;12.27;11.27;;;22.00;99.90;;;;;;7372130;19;20074;-82
2023/06/19 08:49:46;;;;;;;14.52;13.27;;;22.20;99.90;;;;;;7370385;19;20490;-82
2023/06/19 08:52:13;;;;;;;12.57;11.50;;;22.80;99.90;;;;;;7374683;19;20051;-81
2023/06/19 08:54:43;;;;;;;13.70;12.50;;;22.60;99.90;;;;;;7371478;19;20018;-82
2023/06/19 08:57:12;;;;;;;11.52;10.48;;;22.50;99.90;;;;;;7372380;19;20029;-82
2023/06/19 08:59:38;;;;;;;11.02;9.98;;;22.20;99.90;;;;;;7366923;19;20056;-81
2023/06/19 09:02:04;;;;;;;9.43;8.63;;;22.20;99.90;;;;;;7372441;19;20015;-81
2023/06/19 09:04:34;;;;;;;10.18;8.15;;;22.20;99.90;;;;;;7369698;19;20026;-82
2023/06/19 09:07:03;;;;;;;11.20;8.45;;;22.20;99.90;;;;;;7374287;19;20029;-82
2023/06/19 09:09:37;;;;;;;11.23;8.35;;;22.00;99.90;;;;;;7370348;19;20018;-81
2023/06/19 09:12:11;;;;;;;10.52;8.95;;;21.90;99.90;;;;;;7370535;19;20018;-82
2023/06/19 09:14:44;;;;;;;10.55;8.18;;;22.10;99.90;;;;;;7370287;19;20053;-82
2023/06/19 09:17:20;;;;;;;9.98;7.28;;;22.10;99.90;;;;;;7366637;19;20022;-83
2023/06/19 09:19:51;;;;;;;8.75;7.78;;;22.50;99.90;;;;;;7369462;19;20022;-84
2023/06/19 09:22:20;;;;;;;8.38;6.47;;;22.50;99.90;;;;;;7368773;19;20022;-84
2023/06/19 09:24:47;;;;;;;9.73;7.53;;;22.50;99.90;;;;;;7376751;19;20025;-84
2023/06/19 09:27:19;;;;;;;10.57;7.72;;;22.60;99.90;;;;;;7372759;19;20031;-83
2023/06/19 09:29:47;;;;;;;;;;;22.40;99.90;;;;;;7379091;19;20109;-84
2023/06/19 09:32:24;;;;;;;8.80;7.90;;;22.50;99.90;;;;;;7378522;19;19925;-84
2023/06/19 09:34:54;;;;;;;9.40;7.10;;;22.30;99.90;;;;;;7373771;19;20052;-83
2023/06/19 09:37:26;;;;;;;11.05;7.28;;;22.40;99.90;;;;;;7372973;19;20019;-84
2023/06/19 09:39:59;;;;;;;11.45;6.75;;;22.50;99.90;;;;;;7371173;19;20115;-83
2023/06/19 09:42:34;;;;;;;10.68;7.75;;;22.60;99.90;;;;;;7373299;19;20037;-83
2023/06/19 09:45:05;;;;;;;11.23;7.85;;;22.70;99.90;;;;;;7375981;19;20022;-84
2023/06/19 09:47:56;;;;;;;9.93;6.93;;;22.60;99.90;;;;;;7377683;19;20019;-83
2023/06/19 09:50:27;;;;;;;9.25;8.35;;;22.80;99.90;;;;;;7372255;19;20074;-83
2023/06/19 09:52:55;;;;;;;11.98;9.20;;;23.10;99.90;;;;;;7377061;19;20030;-84
2023/06/19 09:55:24;;;;;;;11.43;9.35;;;23.10;99.90;;;;;;7370530;19;20046;-83
2023/06/19 09:57:53;;;;;;;11.43;10.23;;;23.30;99.90;;;;;;7372752;19;20019;-84
2023/06/19 10:00:21;;;;;;;13.57;11.55;;;23.40;99.90;;;;;;7370641;19;20015;-84
2023/06/19 10:02:49;;;;;;;15.23;10.98;;;23.30;99.90;;;;;;7374269;19;20417;-84
2023/06/19 10:05:17;;;;;;;11.85;10.32;;;23.50;99.90;;;;;;7370245;19;20827;-85
2023/06/19 10:07:46;;;;;;;13.57;12.27;;;24.00;99.90;;;;;;7373397;19;20022;-85
2023/06/19 10:10:36;;;;;;;12.90;11.57;;;23.80;99.90;;;;;;7370109;19;20051;-86
2023/06/19 10:13:14;;;;;;;14.25;11.65;;;23.50;99.90;;;;;;7373240;19;20019;-85
2023/06/19 10:15:48;;;;;;;13.85;10.73;;;23.10;99.90;;;;;;7375951;19;20057;-85
2023/06/19 10:18:16;;;;;;;11.70;10.38;;;23.10;99.90;;;;;;7371933;19;20082;-85
2023/06/19 10:20:43;;;;;;;10.63;9.27;;;23.40;99.90;;;;;;7374863;19;20046;-85
2023/06/19 10:23:20;;;;;;;10.27;9.18;;;23.60;99.90;;;;;;7375605;19;20041;-85
2023/06/19 10:25:58;;;;;;;11.02;9.73;;;23.70;99.90;;;;;;7366125;19;20022;-86
2023/06/19 10:28:29;;;;;;;11.82;9.60;;;23.80;99.90;;;;;;7373244;19;20028;-86
2023/06/19 10:31:02;;;;;;;13.10;10.27;;;23.50;99.90;;;;;;7370423;19;20874;-85
2023/06/19 10:33:32;;;;;;;11.23;8.68;;;23.50;99.90;;;;;;7376168;19;20018;-85
2023/06/19 10:36:00;;;;;;;11.98;8.75;;;23.50;99.90;;;;;;7373199;19;20016;-86
2023/06/19 10:38:27;;;;;;;9.80;8.02;;;23.20;99.90;;;;;;7370477;19;20010;-85
2023/06/19 10:40:53;;;;;;;8.38;7.55;;;23.30;99.90;;;;;;7371369;19;20015;-85
2023/06/19 10:43:25;;;;;;;11.75;8.30;;;23.20;99.90;;;;;;7371989;19;20431;-86
2023/06/19 10:45:51;;;;;;;8.77;7.88;;;23.60;99.90;;;;;;7372648;19;20025;-86
2023/06/19 10:48:23;;;;;;;9.68;7.55;;;23.90;99.90;;;;;;7374163;19;20015;-86
2023/06/19 10:50:50;;;;;;;9.20;7.13;;;24.40;99.90;;;;;;7370528;19;20074;-86
2023/06/19 10:53:24;;;;;;;10.15;6.95;;;25.00;99.90;;;;;;7372905;19;20037;-87
2023/06/19 10:55:55;;;;;;;9.25;8.30;;;24.60;99.90;;;;;;7371118;19;20510;-86
2023/06/19 10:58:23;;;;;;;7.90;7.10;;;24.60;99.90;;;;;;7374059;19;20022;-86
2023/06/19 11:00:49;;;;;;;9.60;7.15;;;24.80;99.90;;;;;;7371283;19;20422;-85
2023/06/19 11:03:19;;;;;;;10.63;7.85;;;25.00;99.90;;;;;;7373258;19;20143;-87
2023/06/19 11:05:48;;;;;;;8.73;7.85;;;24.80;99.90;;;;;;7370709;19;20086;-86
2023/06/19 11:08:19;;;;;;;9.45;8.45;;;24.60;99.90;;;;;;7370911;19;20081;-86
2023/06/19 11:10:46;;;;;;;;;;;24.40;99.90;;;;;;7376752;19;20044;-86
2023/06/19 11:13:19;;;;;;;11.05;9.18;;;24.70;99.90;;;;;;7382161;19;20462;-86
2023/06/19 11:15:50;;;;;;;10.57;8.75;;;24.70;99.90;;;;;;7379171;19;20014;-86
2023/06/19 11:18:18;;;;;;;10.10;8.50;;;25.10;99.90;;;;;;7377162;19;20025;-87
2023/06/19 11:20:50;;;;;;;10.52;7.65;;;25.20;99.90;;;;;;7377950;19;20034;-87
2023/06/19 11:23:30;;;;;;;8.43;6.68;;;25.70;99.90;;;;;;7382566;19;20007;-86
2023/06/19 11:26:04;;;;;;;9.45;7.57;;;25.10;99.90;;;;;;7383719;19;20026;-86
2023/06/19 11:28:30;;;;;;;11.40;7.60;;;25.10;99.90;;;;;;7380101;19;20014;-87
2023/06/19 11:31:02;;;;;;;10.52;7.80;;;25.10;99.90;;;;;;7376139;19;20062;-85
2023/06/19 11:33:30;;;;;;;8.32;6.97;;;24.80;99.90;;;;;;7379275;19;20030;-86
2023/06/19 11:36:01;;;;;;;9.90;8.50;;;24.90;99.90;;;;;;7378604;19;20015;-85
2023/06/19 11:38:27;;;;;;;10.77;8.25;;;25.30;99.90;;;;;;7377563;19;20018;-84
2023/06/19 11:40:56;;;;;;;10.93;8.80;;;25.30;99.90;;;;;;7378756;19;20086;-84
2023/06/19 11:43:24;;;;;;;10.68;8.27;;;25.10;99.90;;;;;;7374963;19;20487;-85
2023/06/19 11:45:52;;;;;;;9.20;8.32;;;25.20;99.90;;;;;;7380260;19;20031;-85
2023/06/19 11:48:25;;;;;;;10.63;8.82;;;25.30;99.90;;;;;;7380276;19;20509;-85
2023/06/19 11:50:53;;;;;;;9.77;8.77;;;24.90;99.90;;;;;;7376265;19;20019;-85
2023/06/19 11:53:23;;;;;;;10.40;9.38;;;24.50;99.90;;;;;;7379486;19;20646;-86
2023/06/19 11:55:50;;;;;;;10.52;8.13;;;24.50;99.90;;;;;;7378408;19;20019;-86
2023/06/19 11:58:17;;;;;;;8.63;7.32;;;25.30;99.90;;;;;;7376273;19;20022;-87
2023/06/19 12:00:44;;;;;;;15.85;8.68;;;25.30;99.90;;;;;;7379759;19;20022;-86
2023/06/19 12:03:14;;;;;;;11.32;8.25;;;25.50;99.90;;;;;;7375865;19;20015;-87
2023/06/19 12:05:41;;;;;;;10.68;9.20;;;25.70;99.90;;;;;;7378262;19;20070;-86
2023/06/19 12:08:08;;;;;;;10.10;9.05;;;25.90;99.90;;;;;;7376545;19;20026;-86
2023/06/19 12:10:34;;;;;;;11.43;8.85;;;26.10;99.90;;;;;;7377743;19;20029;-87
2023/06/19 12:13:00;;;;;;;11.48;9.00;;;26.60;99.90;;;;;;7377553;19;20029;-87
2023/06/19 12:15:27;;;;;;;10.60;8.68;;;26.10;99.90;;;;;;7379892;19;20771;-87
2023/06/19 12:17:54;;;;;;;11.93;8.27;;;26.70;99.90;;;;;;7376866;19;20018;-86
2023/06/19 12:20:20;;;;;;;11.02;9.13;;;27.00;99.40;;;;;;7375821;19;20064;-86
2023/06/19 12:22:46;;;;;;;12.40;8.98;;;26.80;99.40;;;;;;7375609;19;20022;-86
2023/06/19 12:25:12;;;;;;;14.88;9.68;;;26.60;99.20;;;;;;7375697;19;20019;-86
2023/06/19 12:27:39;;;;;;;12.82;9.20;;;26.30;99.30;;;;;;7378654;19;20014;-86
2023/06/19 12:30:06;;;;;;;15.43;9.45;;;25.80;99.60;;;;;;7375073;19;20206;-86
2023/06/19 12:32:33;;;;;;;11.68;9.32;;;25.80;99.90;;;;;;7378050;19;20015;-86
2023/06/19 12:35:02;;;;;;;14.75;9.38;;;25.60;99.90;;;;;;7371187;19;20359;-85
2023/06/19 12:37:31;;;;;;;16.05;9.85;;;25.30;99.90;;;;;;7373153;19;20026;-85
2023/06/19 12:39:58;;;;;;;10.75;9.40;;;25.50;99.90;;;;;;7376210;19;20026;-86
2023/06/19 12:42:24;;;;;;;12.57;10.05;;;25.30;99.90;;;;;;7374091;19;20385;-86
2023/06/19 12:44:51;;;;;;;11.77;8.88;;;25.30;99.90;;;;;;7375838;19;20014;-86
2023/06/19 12:47:18;;;;;;;13.20;10.20;;;25.90;99.90;;;;;;7373764;19;20517;-85